East Otto, New York
Current Conditions -  °F | °C
As of 8:35 AM on Wednesday 22 Oct 2014 (Local Time) from KOLE Reporting Station
Moderate Fog Moderate Fog  
Wind Chill: 34°   Ceiling: 300
Heat Index: 39°   Visibility: 0mi
Dew Point: 39°   Wind: 7mph
Humidity: 100%   Direction: 30°NNE
Pressure: 30.13"   Gusts: NA
Location:  42.39°N, 78.75°W
Report Text: KOLE 221235Z AUTO 03006KT M1/4SM FG OVC003 04/04 A3013 RMK AO2
Loading
Personal Weather Stations






























Interactive Weather Map
Tropical Storm Tracking
New forecast layout! Learn more

10-Day Weather Forecast

Advertisements
Track Severe Weather on mobile